Time;durP1;ratioP1;P1;durP2;ratioP2;P2;SDS_P1;SDS_P2;PMS_P1;PMS_P2;Temp;Humidity;BMP_temperature;BMP_pressure;BME280_temperature;BME280_humidity;BME280_pressure;Samples;Min_cycle;Max_cycle;Signal;HPM_P1;HPM_P2
2021/06/15 00:00:56;;;;;;;41.33;22.80;;;;;;;;;;5045811;28;20044;-67
2021/06/15 00:03:23;;;;;;;39.03;21.83;;;;;;;;;;5030274;28;20559;-63
2021/06/15 00:05:49;;;;;;;51.63;23.30;;;;;;;;;;5030055;28;20481;-65
2021/06/15 00:08:14;;;;;;;45.72;22.17;;;;;;;;;;5047561;28;20120;-66
2021/06/15 00:10:42;;;;;;;47.15;21.65;;;;;;;;;;5046569;28;20131;-64
2021/06/15 00:13:08;;;;;;;52.13;20.80;;;;;;;;;;5051905;28;20057;-63
2021/06/15 00:15:34;;;;;;;39.58;21.58;;;;;;;;;;5036276;28;20115;-64
2021/06/15 00:18:00;;;;;;;40.92;21.33;;;;;;;;;;5046496;28;20131;-65
2021/06/15 00:20:26;;;;;;;46.17;22.88;;;;;;;;;;5045612;28;20068;-64
2021/06/15 00:22:54;;;;;;;44.85;23.00;;;;;;;;;;5029359;28;20038;-62
2021/06/15 00:25:20;;;;;;;39.25;23.80;;;;;;;;;;5046398;28;21946;-63
2021/06/15 00:27:46;;;;;;;45.67;24.17;;;;;;;;;;5044069;28;20065;-64
2021/06/15 00:30:13;;;;;;;45.55;25.13;;;;;;;;;;5029962;28;20044;-65
2021/06/15 00:32:42;;;;;;;45.13;25.13;;;;;;;;;;5029019;28;20382;-63
2021/06/15 00:35:08;;;;;;;42.20;24.20;;;;;;;;;;5011356;28;20160;-64
2021/06/15 00:37:34;;;;;;;52.35;24.52;;;;;;;;;;5045987;28;20059;-64
2021/06/15 00:39:59;;;;;;;38.90;23.02;;;;;;;;;;5028419;28;20405;-63
2021/06/15 00:42:25;;;;;;;46.42;24.35;;;;;;;;;;5045048;28;20062;-63
2021/06/15 00:44:51;;;;;;;41.28;22.80;;;;;;;;;;5039644;28;20033;-63
2021/06/15 00:47:17;;;;;;;49.17;24.15;;;;;;;;;;5047057;28;20458;-65
2021/06/15 00:49:43;;;;;;;40.28;22.50;;;;;;;;;;5027698;28;20033;-62
2021/06/15 00:52:09;;;;;;;44.78;24.05;;;;;;;;;;5044882;28;20102;-64
2021/06/15 00:54:34;;;;;;;45.83;23.60;;;;;;;;;;5034652;28;20064;-64
2021/06/15 00:57:01;;;;;;;44.10;23.25;;;;;;;;;;5027179;28;20497;-64
2021/06/15 00:59:27;;;;;;;43.20;23.80;;;;;;;;;;5026383;28;20130;-63
2021/06/15 01:01:55;;;;;;;41.30;23.77;;;;;;;;;;5024492;28;20068;-66
2021/06/15 01:04:21;;;;;;;47.40;26.00;;;;;;;;;;5010506;28;20029;-62
2021/06/15 01:06:52;;;;;;;44.47;25.45;;;;;;;;;;5043129;28;20685;-64
2021/06/15 01:09:24;;;;;;;49.08;23.25;;;;;;;;;;4992526;28;20084;-66
2021/06/15 01:12:08;;;;;;;45.10;23.55;;;;;;;;;;5043704;28;20075;-63
2021/06/15 01:14:45;;;;;;;50.30;25.55;;;;;;;;;;5022104;28;20092;-65
2021/06/15 01:17:20;;;;;;;50.22;24.55;;;;;;;;;;5027980;28;20032;-65
2021/06/15 01:19:49;;;;;;;61.55;26.58;;;;;;;;;;5044258;28;20055;-64
2021/06/15 01:22:20;;;;;;;52.88;25.67;;;;;;;;;;5032782;28;20120;-67
2021/06/15 01:24:56;;;;;;;58.55;25.05;;;;;;;;;;5046079;28;20222;-71
2021/06/15 01:27:29;;;;;;;47.75;25.02;;;;;;;;;;5009703;28;20052;-67
2021/06/15 01:29:56;;;;;;;56.65;28.45;;;;;;;;;;5010512;28;20033;-70
2021/06/15 01:32:27;;;;;;;49.30;25.63;;;;;;;;;;5028640;28;20033;-68
2021/06/15 01:34:54;;;;;;;53.25;24.02;;;;;;;;;;5026621;28;20094;-68
2021/06/15 01:37:33;;;;;;;46.72;22.65;;;;;;;;;;5023385;28;20053;-71
2021/06/15 01:40:03;;;;;;;51.28;24.10;;;;;;;;;;5042484;28;20045;-69
2021/06/15 01:42:55;;;;;;;52.17;23.55;;;;;;;;;;5021236;28;20047;-71
2021/06/15 01:45:30;;;;;;;47.65;25.02;;;;;;;;;;5027898;28;20040;-70
2021/06/15 01:48:17;;;;;;;51.47;24.45;;;;;;;;;;5025022;28;20040;-69
2021/06/15 01:50:45;;;;;;;52.80;26.98;;;;;;;;;;5020382;28;20049;-71
2021/06/15 01:53:19;;;;;;;50.15;24.10;;;;;;;;;;5022133;28;20129;-69
2021/06/15 01:55:55;;;;;;;54.53;23.10;;;;;;;;;;5006349;28;20035;-70
2021/06/15 01:58:26;;;;;;;43.50;23.60;;;;;;;;;;5053486;28;20048;-70
2021/06/15 02:00:54;;;;;;;48.55;22.83;;;;;;;;;;5024760;28;20094;-70
2021/06/15 02:03:21;;;;;;;39.63;22.17;;;;;;;;;;5026347;28;20045;-70
2021/06/15 02:05:49;;;;;;;52.85;23.55;;;;;;;;;;5044565;28;20041;-71
2021/06/15 02:08:21;;;;;;;39.15;22.40;;;;;;;;;;5025013;28;20032;-70
2021/06/15 02:10:48;;;;;;;46.92;23.08;;;;;;;;;;5027471;28;20102;-67
2021/06/15 02:13:40;;;;;;;53.67;26.08;;;;;;;;;;4956632;28;20533;-67
2021/06/15 02:16:25;;;;;;;40.65;25.40;;;;;;;;;;4932666;28;20068;-70
2021/06/15 02:19:16;;;;;;;49.42;23.50;;;;;;;;;;4942323;28;20039;-69
2021/06/15 02:21:48;;;;;;;43.55;25.58;;;;;;;;;;4943411;28;20463;-74
2021/06/15 02:24:16;;;;;;;44.10;24.88;;;;;;;;;;4941983;28;20043;-71
2021/06/15 02:26:44;;;;;;;49.78;26.35;;;;;;;;;;4944944;28;20042;-72
2021/06/15 02:29:10;;;;;;;51.40;25.80;;;;;;;;;;4939726;29;20047;-72
2021/06/15 02:31:41;;;;;;;49.63;26.55;;;;;;;;;;4928939;29;20039;-71
2021/06/15 02:34:10;;;;;;;44.63;26.15;;;;;;;;;;4944621;28;20882;-73
2021/06/15 02:36:42;;;;;;;48.85;26.50;;;;;;;;;;4928828;29;20043;-74
2021/06/15 02:39:10;;;;;;;44.80;26.08;;;;;;;;;;4950417;28;20038;-68
2021/06/15 02:41:37;;;;;;;49.35;25.40;;;;;;;;;;4918102;28;20574;-70
2021/06/15 02:44:05;;;;;;;44.03;24.58;;;;;;;;;;4928079;29;20051;-68
2021/06/15 02:46:33;;;;;;;41.28;23.58;;;;;;;;;;4931975;29;20051;-71
2021/06/15 02:49:05;;;;;;;49.08;25.35;;;;;;;;;;4943382;28;20045;-68
2021/06/15 02:51:34;;;;;;;55.63;24.77;;;;;;;;;;5031557;28;20048;-72
2021/06/15 02:54:19;;;;;;;55.53;26.98;;;;;;;;;;5009479;28;20044;-71
2021/06/15 02:56:47;;;;;;;52.20;26.08;;;;;;;;;;5009385;28;20106;-68
2021/06/15 02:59:13;;;;;;;44.40;26.25;;;;;;;;;;5039983;28;20413;-69
2021/06/15 03:01:44;;;;;;;44.30;27.73;;;;;;;;;;5026684;28;20045;-69
2021/06/15 03:04:10;;;;;;;53.60;27.42;;;;;;;;;;5022580;28;20033;-67
2021/06/15 03:06:36;;;;;;;49.10;27.75;;;;;;;;;;5022231;28;20436;-68
2021/06/15 03:09:03;;;;;;;52.10;27.95;;;;;;;;;;5008741;28;20064;-68
2021/06/15 03:11:30;;;;;;;48.58;26.95;;;;;;;;;;5025956;28;20052;-65
2021/06/15 03:14:19;;;;;;;51.80;27.55;;;;;;;;;;5050819;28;20056;-66
2021/06/15 03:16:45;;;;;;;44.90;25.58;;;;;;;;;;5040833;28;20057;-66
2021/06/15 03:19:18;;;;;;;50.88;26.23;;;;;;;;;;5025869;28;20467;-65
2021/06/15 03:21:48;;;;;;;45.22;25.30;;;;;;;;;;5026105;28;20499;-65
2021/06/15 03:24:22;;;;;;;57.47;25.60;;;;;;;;;;5025854;28;20132;-65
2021/06/15 03:26:58;;;;;;;47.42;22.75;;;;;;;;;;5041877;28;20044;-64
2021/06/15 03:29:28;;;;;;;39.50;23.25;;;;;;;;;;5037666;28;20041;-66
2021/06/15 03:31:59;;;;;;;44.10;24.05;;;;;;;;;;5007442;28;20092;-66
2021/06/15 03:34:28;;;;;;;38.58;22.23;;;;;;;;;;5005654;28;20207;-65
2021/06/15 03:36:56;;;;;;;43.55;24.90;;;;;;;;;;5028840;28;20051;-66
2021/06/15 03:39:24;;;;;;;44.97;23.38;;;;;;;;;;5029714;28;20029;-66
2021/06/15 03:41:51;;;;;;;44.90;22.48;;;;;;;;;;5029746;28;20037;-66
2021/06/15 03:44:19;;;;;;;40.55;21.17;;;;;;;;;;5046969;28;20048;-64
2021/06/15 03:46:48;;;;;;;39.55;21.13;;;;;;;;;;5024923;28;20036;-66
2021/06/15 03:49:15;;;;;;;34.05;19.55;;;;;;;;;;5029307;28;20043;-68
2021/06/15 03:51:46;;;;;;;31.60;19.77;;;;;;;;;;5013604;28;20072;-67
2021/06/15 03:54:13;;;;;;;38.22;19.83;;;;;;;;;;5011000;28;20043;-66
2021/06/15 03:56:43;;;;;;;41.97;20.75;;;;;;;;;;5047050;28;20037;-65
2021/06/15 03:59:10;;;;;;;40.92;19.23;;;;;;;;;;5039775;28;20037;-66
2021/06/15 04:01:38;;;;;;;35.53;18.63;;;;;;;;;;5045030;28;20131;-65
2021/06/15 04:04:05;;;;;;;36.58;17.95;;;;;;;;;;5047354;28;20029;-69
2021/06/15 04:06:35;;;;;;;40.67;18.27;;;;;;;;;;5046503;28;20083;-64
2021/06/15 04:09:03;;;;;;;30.77;18.52;;;;;;;;;;5046113;28;20048;-64
2021/06/15 04:11:30;;;;;;;31.52;16.25;;;;;;;;;;5013247;28;20127;-66
2021/06/15 04:13:57;;;;;;;31.25;16.52;;;;;;;;;;5025183;28;20100;-66
2021/06/15 04:16:24;;;;;;;34.63;17.15;;;;;;;;;;5002050;28;20180;-68
2021/06/15 04:18:50;;;;;;;31.50;17.63;;;;;;;;;;5044417;28;20132;-68
2021/06/15 04:21:17;;;;;;;37.88;17.88;;;;;;;;;;5044911;28;20485;-66
2021/06/15 04:23:46;;;;;;;30.05;16.88;;;;;;;;;;5028821;28;20039;-64
2021/06/15 04:26:14;;;;;;;32.63;16.92;;;;;;;;;;5027421;28;20037;-65
2021/06/15 04:28:39;;;;;;;27.60;15.77;;;;;;;;;;5045177;28;20120;-64
2021/06/15 04:31:06;;;;;;;32.00;16.27;;;;;;;;;;5033422;28;20037;-66
2021/06/15 04:33:32;;;;;;;33.22;15.50;;;;;;;;;;5028203;28;20099;-68
2021/06/15 04:35:59;;;;;;;25.23;14.77;;;;;;;;;;5045548;28;20033;-67
2021/06/15 04:38:39;;;;;;;25.83;14.98;;;;;;;;;;5042672;28;20132;-67
2021/06/15 04:41:08;;;;;;;27.20;14.00;;;;;;;;;;5033767;28;20041;-70
2021/06/15 04:43:37;;;;;;;31.98;15.48;;;;;;;;;;5042698;28;20029;-64
2021/06/15 04:46:07;;;;;;;28.23;14.40;;;;;;;;;;5036406;28;20095;-64
2021/06/15 04:48:34;;;;;;;30.15;14.13;;;;;;;;;;5040442;28;20040;-67
2021/06/15 04:51:01;;;;;;;28.30;13.52;;;;;;;;;;5028576;28;20381;-65
2021/06/15 04:53:32;;;;;;;23.90;13.00;;;;;;;;;;5013056;28;20075;-64
2021/06/15 04:55:59;;;;;;;23.67;13.43;;;;;;;;;;5038515;28;20060;-70
2021/06/15 04:58:27;;;;;;;25.17;13.63;;;;;;;;;;5030758;28;20040;-65
2021/06/15 05:00:54;;;;;;;26.30;13.18;;;;;;;;;;5036680;28;20047;-67
2021/06/15 05:03:20;;;;;;;24.70;13.45;;;;;;;;;;5028334;28;20507;-66
2021/06/15 05:05:49;;;;;;;25.90;12.30;;;;;;;;;;5012318;28;20120;-67
2021/06/15 05:08:18;;;;;;;22.88;12.18;;;;;;;;;;5029314;28;20036;-68
2021/06/15 05:10:45;;;;;;;20.83;12.70;;;;;;;;;;5027118;28;20086;-63
2021/06/15 05:13:11;;;;;;;25.05;12.20;;;;;;;;;;5008592;28;20049;-70
2021/06/15 05:15:42;;;;;;;22.15;12.10;;;;;;;;;;5046164;28;20801;-65
2021/06/15 05:18:09;;;;;;;18.73;11.88;;;;;;;;;;5028089;28;20393;-65
2021/06/15 05:20:36;;;;;;;25.23;13.50;;;;;;;;;;5025988;28;20139;-69
2021/06/15 05:23:03;;;;;;;20.65;11.55;;;;;;;;;;5027080;28;20144;-64
2021/06/15 05:25:30;;;;;;;21.00;12.15;;;;;;;;;;4994743;28;20038;-64
2021/06/15 05:27:55;;;;;;;22.75;12.30;;;;;;;;;;5028029;28;20449;-64
2021/06/15 05:30:22;;;;;;;18.17;12.02;;;;;;;;;;5043664;28;20440;-64
2021/06/15 05:32:49;;;;;;;22.02;12.63;;;;;;;;;;5011091;28;20040;-66
2021/06/15 05:35:15;;;;;;;21.70;13.35;;;;;;;;;;5027058;28;20028;-67
2021/06/15 05:37:42;;;;;;;29.73;12.98;;;;;;;;;;5027162;28;20051;-65
2021/06/15 05:40:08;;;;;;;20.20;12.55;;;;;;;;;;5026136;28;20095;-64
2021/06/15 05:42:33;;;;;;;29.27;13.02;;;;;;;;;;5026980;28;20052;-64
2021/06/15 05:44:59;;;;;;;27.13;12.02;;;;;;;;;;5043523;28;20029;-65
2021/06/15 05:47:26;;;;;;;20.73;12.68;;;;;;;;;;5025176;28;20279;-64
2021/06/15 05:49:52;;;;;;;26.67;13.88;;;;;;;;;;5026756;28;20408;-64
2021/06/15 05:52:18;;;;;;;19.85;11.70;;;;;;;;;;5042117;28;20115;-64
2021/06/15 05:54:44;;;;;;;29.13;13.40;;;;;;;;;;5026617;28;20124;-63
2021/06/15 05:57:09;;;;;;;25.23;13.05;;;;;;;;;;5025527;28;20143;-64
2021/06/15 05:59:38;;;;;;;16.60;11.73;;;;;;;;;;5042587;28;20457;-64
2021/06/15 06:02:06;;;;;;;17.83;11.95;;;;;;;;;;5031222;28;20108;-64
2021/06/15 06:10:05;;;;;;;24.38;11.32;;;;;;;;;;5019875;28;20044;-65
2021/06/15 06:12:31;;;;;;;27.67;15.00;;;;;;;;;;5017874;28;20046;-65
2021/06/15 06:14:56;;;;;;;21.73;11.13;;;;;;;;;;5020892;28;20123;-66
2021/06/15 06:17:22;;;;;;;16.15;10.40;;;;;;;;;;5003002;28;20069;-67
2021/06/15 06:19:49;;;;;;;24.60;11.27;;;;;;;;;;5005050;28;20475;-66
2021/06/15 06:22:14;;;;;;;29.58;10.98;;;;;;;;;;5003152;28;20041;-69
2021/06/15 06:24:40;;;;;;;29.35;11.48;;;;;;;;;;4971466;28;20213;-64
2021/06/15 06:27:07;;;;;;;24.48;10.88;;;;;;;;;;5001143;28;20044;-65
2021/06/15 06:29:32;;;;;;;23.05;10.65;;;;;;;;;;5017897;28;20072;-67
2021/06/15 06:31:58;;;;;;;16.48;10.02;;;;;;;;;;5011588;28;20671;-65
2021/06/15 06:34:24;;;;;;;18.73;9.70;;;;;;;;;;5011079;28;20047;-68
2021/06/15 06:36:51;;;;;;;16.27;9.63;;;;;;;;;;5021056;28;20132;-65
2021/06/15 06:39:17;;;;;;;18.40;9.30;;;;;;;;;;5002997;28;20529;-65
2021/06/15 06:41:43;;;;;;;29.55;9.35;;;;;;;;;;5002868;28;20034;-65
2021/06/15 06:44:09;;;;;;;18.40;8.65;;;;;;;;;;5022889;28;20057;-65
2021/06/15 06:46:37;;;;;;;18.77;9.60;;;;;;;;;;5049819;28;20032;-64
2021/06/15 06:49:02;;;;;;;13.60;9.27;;;;;;;;;;5024896;28;20445;-64
2021/06/15 06:51:29;;;;;;;16.77;8.88;;;;;;;;;;5009894;28;20037;-69
2021/06/15 06:53:57;;;;;;;19.95;10.45;;;;;;;;;;5006547;28;20127;-65
2021/06/15 06:56:23;;;;;;;19.75;11.00;;;;;;;;;;5038030;28;20146;-65
2021/06/15 06:58:49;;;;;;;15.48;9.63;;;;;;;;;;5042228;28;20029;-64
2021/06/15 07:01:15;;;;;;;22.52;10.65;;;;;;;;;;5042992;28;20122;-65
2021/06/15 07:03:40;;;;;;;17.83;10.45;;;;;;;;;;5027151;28;20051;-69
2021/06/15 07:06:06;;;;;;;17.10;10.73;;;;;;;;;;5010403;28;20114;-64
2021/06/15 07:08:32;;;;;;;21.10;10.77;;;;;;;;;;5045654;28;20455;-68
2021/06/15 07:10:57;;;;;;;18.30;10.20;;;;;;;;;;5028161;28;20047;-66
2021/06/15 07:13:23;;;;;;;18.42;10.60;;;;;;;;;;5046986;28;20079;-65
2021/06/15 07:15:49;;;;;;;18.95;10.10;;;;;;;;;;5047744;28;20048;-66
2021/06/15 07:18:14;;;;;;;14.57;9.50;;;;;;;;;;5025911;28;20036;-70
2021/06/15 07:20:40;;;;;;;18.33;10.13;;;;;;;;;;5046370;28;20840;-69
2021/06/15 07:23:08;;;;;;;20.48;9.70;;;;;;;;;;5029552;28;20068;-63
2021/06/15 07:25:34;;;;;;;18.63;10.13;;;;;;;;;;5045214;28;20083;-65
2021/06/15 07:28:02;;;;;;;13.85;9.00;;;;;;;;;;5010361;28;20032;-65
2021/06/15 07:30:29;;;;;;;15.82;10.18;;;;;;;;;;5022256;28;20037;-64
2021/06/15 07:32:58;;;;;;;18.40;10.30;;;;;;;;;;5046799;28;20102;-64
2021/06/15 07:35:25;;;;;;;17.15;9.30;;;;;;;;;;5016814;28;20052;-64
2021/06/15 07:37:51;;;;;;;19.02;9.48;;;;;;;;;;5029411;28;20047;-66
2021/06/15 07:40:22;;;;;;;22.42;10.30;;;;;;;;;;5028336;28;20413;-66
2021/06/15 07:42:55;;;;;;;14.88;9.55;;;;;;;;;;5027434;28;20041;-66
2021/06/15 07:45:22;;;;;;;16.00;10.15;;;;;;;;;;5029578;28;20037;-65
2021/06/15 07:47:48;;;;;;;21.40;10.02;;;;;;;;;;5007004;28;20049;-69
2021/06/15 07:50:14;;;;;;;17.92;9.30;;;;;;;;;;5038063;28;20167;-69
2021/06/15 07:52:40;;;;;;;22.23;9.85;;;;;;;;;;5038636;28;20036;-66
2021/06/15 07:55:07;;;;;;;14.23;9.18;;;;;;;;;;5017588;28;20037;-68
2021/06/15 07:57:33;;;;;;;15.55;8.65;;;;;;;;;;5021074;28;20064;-68
2021/06/15 08:00:01;;;;;;;20.98;10.00;;;;;;;;;;5036108;28;20036;-68
2021/06/15 08:02:28;;;;;;;22.48;9.10;;;;;;;;;;5020700;28;20147;-66
2021/06/15 08:04:54;;;;;;;19.25;9.65;;;;;;;;;;5021322;28;20029;-65
2021/06/15 08:07:20;;;;;;;19.98;9.77;;;;;;;;;;5000213;28;20504;-66
2021/06/15 08:09:45;;;;;;;15.48;9.63;;;;;;;;;;5037624;28;20083;-65
2021/06/15 08:12:11;;;;;;;17.95;8.70;;;;;;;;;;5035796;28;20041;-64
2021/06/15 08:14:37;;;;;;;22.05;8.18;;;;;;;;;;5037886;28;20409;-67
2021/06/15 08:17:03;;;;;;;17.73;7.97;;;;;;;;;;5035763;28;20077;-69
2021/06/15 08:19:29;;;;;;;16.17;7.75;;;;;;;;;;5032099;28;20041;-68
2021/06/15 08:21:54;;;;;;;14.90;6.95;;;;;;;;;;5041109;28;20045;-67
2021/06/15 08:24:20;;;;;;;19.92;7.30;;;;;;;;;;5039210;28;20041;-66
2021/06/15 08:26:46;;;;;;;13.02;6.10;;;;;;;;;;5035920;28;20136;-67
2021/06/15 08:29:11;;;;;;;9.38;6.18;;;;;;;;;;5039249;28;20036;-68
2021/06/15 08:31:37;;;;;;;14.35;6.47;;;;;;;;;;5006213;28;20366;-67
2021/06/15 08:34:03;;;;;;;9.45;5.35;;;;;;;;;;5036222;28;20547;-67
2021/06/15 08:36:29;;;;;;;11.85;5.63;;;;;;;;;;5036302;28;20353;-67
2021/06/15 08:38:55;;;;;;;12.30;6.30;;;;;;;;;;5046552;28;20052;-66
2021/06/15 08:41:21;;;;;;;5.57;4.25;;;;;;;;;;5027977;28;20119;-69
2021/06/15 08:43:47;;;;;;;5.80;4.70;;;;;;;;;;5020531;28;20469;-67
2021/06/15 08:46:14;;;;;;;9.90;4.82;;;;;;;;;;5028660;28;20523;-67
2021/06/15 08:48:42;;;;;;;10.65;5.03;;;;;;;;;;5024556;28;20060;-67
2021/06/15 08:51:07;;;;;;;8.77;4.63;;;;;;;;;;5036533;28;20730;-69
2021/06/15 08:53:34;;;;;;;10.30;5.45;;;;;;;;;;5035172;28;20041;-69
2021/06/15 08:56:03;;;;;;;15.13;6.70;;;;;;;;;;5031197;28;20132;-67
2021/06/15 08:58:48;;;;;;;10.15;6.05;;;;;;;;;;5033266;28;20036;-68
2021/06/15 09:01:13;;;;;;;6.75;4.35;;;;;;;;;;5035122;28;20968;-66
2021/06/15 09:03:39;;;;;;;9.48;5.25;;;;;;;;;;5039084;28;20033;-69
2021/06/15 09:06:05;;;;;;;10.30;5.53;;;;;;;;;;5020352;28;20041;-68
2021/06/15 09:08:31;;;;;;;15.32;6.38;;;;;;;;;;5033470;28;20413;-66
2021/06/15 09:10:57;;;;;;;11.68;5.50;;;;;;;;;;5037227;28;20029;-68
2021/06/15 09:13:37;;;;;;;8.80;5.60;;;;;;;;;;5015244;28;20075;-66
2021/06/15 09:16:23;;;;;;;14.45;6.43;;;;;;;;;;5016933;28;20045;-67
2021/06/15 09:18:50;;;;;;;11.85;6.10;;;;;;;;;;5021536;28;20054;-67
2021/06/15 09:21:28;;;;;;;9.63;6.05;;;;;;;;;;5033468;28;20048;-70
2021/06/15 09:24:13;;;;;;;8.80;5.55;;;;;;;;;;5010211;28;20035;-72
2021/06/15 09:27:10;;;;;;;13.05;5.45;;;;;;;;;;4999015;28;20134;-70
2021/06/15 09:29:39;;;;;;;12.52;5.13;;;;;;;;;;4999024;28;20044;-70
2021/06/15 09:32:08;;;;;;;6.83;4.30;;;;;;;;;;5014007;28;20071;-67
2021/06/15 09:34:34;;;;;;;11.13;5.07;;;;;;;;;;5004260;28;20596;-69
2021/06/15 09:37:04;;;;;;;8.27;5.18;;;;;;;;;;5031447;28;20053;-68
2021/06/15 09:39:33;;;;;;;10.32;5.53;;;;;;;;;;5022210;28;20559;-70
2021/06/15 09:42:00;;;;;;;8.77;4.63;;;;;;;;;;5016187;28;20466;-68
2021/06/15 09:44:29;;;;;;;14.93;5.18;;;;;;;;;;5009560;28;20071;-71
2021/06/15 09:46:56;;;;;;;10.40;5.35;;;;;;;;;;5015451;28;20490;-72
2021/06/15 09:49:37;;;;;;;13.40;6.32;;;;;;;;;;5041251;28;20099;-71
2021/06/15 09:52:15;;;;;;;11.70;6.03;;;;;;;;;;5033160;28;20033;-73
2021/06/15 09:54:41;;;;;;;13.25;5.57;;;;;;;;;;4996098;28;20588;-74
2021/06/15 09:57:09;;;;;;;13.52;6.40;;;;;;;;;;5014176;28;20045;-79
2021/06/15 09:59:36;;;;;;;13.57;5.80;;;;;;;;;;5032716;28;20178;-76
2021/06/15 10:02:02;;;;;;;13.27;6.53;;;;;;;;;;5036868;28;20545;-74
2021/06/15 10:04:29;;;;;;;16.98;6.30;;;;;;;;;;5002537;28;20140;-70
2021/06/15 10:06:59;;;;;;;19.20;6.40;;;;;;;;;;5013958;28;20059;-73
2021/06/15 10:09:29;;;;;;;13.50;5.97;;;;;;;;;;5008484;28;20043;-73
2021/06/15 10:11:58;;;;;;;16.00;6.85;;;;;;;;;;5022805;28;20453;-66
2021/06/15 10:14:25;;;;;;;16.15;7.00;;;;;;;;;;5024976;28;20083;-65
2021/06/15 10:16:54;;;;;;;20.35;7.18;;;;;;;;;;5024622;28;20119;-65
2021/06/15 10:19:20;;;;;;;11.27;6.63;;;;;;;;;;5043511;28;20032;-69
2021/06/15 10:21:45;;;;;;;20.77;6.47;;;;;;;;;;5033908;28;20044;-65
2021/06/15 10:24:12;;;;;;;16.48;6.80;;;;;;;;;;5016985;28;20805;-64
2021/06/15 10:26:38;;;;;;;13.30;6.15;;;;;;;;;;5029179;28;20052;-66
2021/06/15 10:29:13;;;;;;;17.85;6.28;;;;;;;;;;5036864;28;20037;-67
2021/06/15 10:31:41;;;;;;;20.13;6.50;;;;;;;;;;5030059;28;20124;-65
2021/06/15 10:34:07;;;;;;;16.88;6.53;;;;;;;;;;5024740;28;20127;-68
2021/06/15 10:36:43;;;;;;;10.52;6.03;;;;;;;;;;5000043;28;20414;-67
2021/06/15 10:39:10;;;;;;;15.82;6.82;;;;;;;;;;5037046;28;20033;-65
2021/06/15 10:41:36;;;;;;;14.07;6.35;;;;;;;;;;5013570;28;20230;-64
2021/06/15 10:44:02;;;;;;;18.10;6.85;;;;;;;;;;5036436;28;20124;-65
2021/06/15 10:46:34;;;;;;;14.77;6.95;;;;;;;;;;5031569;28;20147;-67
2021/06/15 10:49:19;;;;;;;14.68;7.07;;;;;;;;;;5015965;28;20025;-65
2021/06/15 10:51:53;;;;;;;17.60;7.60;;;;;;;;;;5030289;28;20033;-66
2021/06/15 10:54:25;;;;;;;20.83;7.32;;;;;;;;;;4997264;28;20118;-65
2021/06/15 10:57:09;;;;;;;15.00;7.18;;;;;;;;;;5033793;28;20614;-74
2021/06/15 10:59:55;;;;;;;19.30;7.03;;;;;;;;;;5017086;28;20078;-70
2021/06/15 11:02:20;;;;;;;15.98;6.65;;;;;;;;;;5032055;28;20086;-72
2021/06/15 11:04:46;;;;;;;20.08;6.63;;;;;;;;;;5028619;28;20041;-71
2021/06/15 11:07:34;;;;;;;11.60;5.82;;;;;;;;;;5015484;28;20068;-70
2021/06/15 11:10:00;;;;;;;14.43;6.53;;;;;;;;;;5032058;28;20124;-72
2021/06/15 11:12:26;;;;;;;20.17;6.47;;;;;;;;;;5030790;28;20041;-69
2021/06/15 11:15:12;;;;;;;15.93;6.50;;;;;;;;;;5029399;28;20054;-70
2021/06/15 11:17:55;;;;;;;12.68;6.30;;;;;;;;;;4991453;28;20052;-70
2021/06/15 11:20:40;;;;;;;13.40;6.57;;;;;;;;;;5004315;28;20037;-71
2021/06/15 11:23:20;;;;;;;14.40;6.38;;;;;;;;;;5035844;28;20043;-72
2021/06/15 11:25:47;;;;;;;14.68;6.85;;;;;;;;;;5031393;28;20079;-69
2021/06/15 11:28:33;;;;;;;18.38;7.40;;;;;;;;;;5038165;28;20041;-69
2021/06/15 11:31:17;;;;;;;15.73;7.10;;;;;;;;;;5025688;28;20544;-77
2021/06/15 11:33:58;;;;;;;10.45;6.57;;;;;;;;;;5034411;28;20123;-74
2021/06/15 11:36:50;;;;;;;16.45;7.00;;;;;;;;;;5004031;28;20536;-72
2021/06/15 11:39:23;;;;;;;11.90;6.18;;;;;;;;;;5013995;28;20048;-70
2021/06/15 11:42:07;;;;;;;9.43;6.57;;;;;;;;;;5001690;28;20033;-71
2021/06/15 11:44:54;;;;;;;11.55;6.53;;;;;;;;;;5013697;28;20044;-73
2021/06/15 11:47:23;;;;;;;16.17;7.10;;;;;;;;;;5017713;28;20101;-72
2021/06/15 11:50:09;;;;;;;15.57;6.60;;;;;;;;;;5029137;28;20118;-76
2021/06/15 11:52:35;;;;;;;12.25;7.20;;;;;;;;;;5035960;28;20122;-70
2021/06/15 11:55:03;;;;;;;18.60;7.93;;;;;;;;;;5037427;28;20037;-70
2021/06/15 11:57:29;;;;;;;14.05;6.43;;;;;;;;;;5034543;28;20044;-69
2021/06/15 11:59:55;;;;;;;16.15;7.20;;;;;;;;;;5011219;28;20045;-69
2021/06/15 12:02:21;;;;;;;15.38;6.70;;;;;;;;;;5038048;28;20041;-69
2021/06/15 12:05:08;;;;;;;15.00;6.82;;;;;;;;;;5017479;28;20171;-73
2021/06/15 12:07:35;;;;;;;11.85;7.60;;;;;;;;;;5024325;28;20155;-71
2021/06/15 12:10:11;;;;;;;15.45;6.50;;;;;;;;;;5045747;28;20471;-74
2021/06/15 12:12:56;;;;;;;18.55;7.03;;;;;;;;;;5015046;28;20835;-69
2021/06/15 12:15:25;;;;;;;14.52;6.93;;;;;;;;;;5018101;28;20359;-72
2021/06/15 12:17:51;;;;;;;12.82;7.20;;;;;;;;;;4997868;28;20190;-69
2021/06/15 12:20:24;;;;;;;17.38;7.30;;;;;;;;;;5016353;28;20077;-70
2021/06/15 12:22:51;;;;;;;24.70;8.40;;;;;;;;;;5018863;28;20055;-72
2021/06/15 12:25:17;;;;;;;12.95;8.02;;;;;;;;;;5024071;28;20140;-72
2021/06/15 12:27:42;;;;;;;17.77;7.82;;;;;;;;;;5030556;28;20045;-71
2021/06/15 12:30:08;;;;;;;15.35;8.57;;;;;;;;;;5018550;28;20059;-72
2021/06/15 12:32:47;;;;;;;21.75;8.07;;;;;;;;;;5035055;28;20037;-71
2021/06/15 12:35:19;;;;;;;17.60;7.93;;;;;;;;;;5035225;28;20121;-67
2021/06/15 12:37:45;;;;;;;13.57;7.85;;;;;;;;;;5001980;28;20033;-68
2021/06/15 12:40:11;;;;;;;21.27;8.25;;;;;;;;;;5028286;28;20031;-67
2021/06/15 12:42:38;;;;;;;14.07;8.32;;;;;;;;;;5026022;28;20099;-66
2021/06/15 12:45:04;;;;;;;13.65;7.97;;;;;;;;;;5036237;28;20036;-72
2021/06/15 12:47:30;;;;;;;23.15;7.75;;;;;;;;;;5016128;28;20041;-77
2021/06/15 12:49:56;;;;;;;15.27;8.10;;;;;;;;;;5040323;28;20033;-69
2021/06/15 12:52:37;;;;;;;11.40;7.32;;;;;;;;;;5003295;28;20538;-70
2021/06/15 12:55:11;;;;;;;13.33;7.73;;;;;;;;;;5033724;28;20036;-77
2021/06/15 12:57:38;;;;;;;17.63;8.60;;;;;;;;;;5012338;28;20283;-69
2021/06/15 13:00:05;;;;;;;14.35;8.52;;;;;;;;;;5026113;28;20033;-69
2021/06/15 13:02:31;;;;;;;24.70;9.23;;;;;;;;;;5032143;28;20069;-70
2021/06/15 13:04:58;;;;;;;16.75;8.90;;;;;;;;;;5015216;28;20078;-76
2021/06/15 13:07:24;;;;;;;16.50;7.40;;;;;;;;;;5036717;28;20076;-72
2021/06/15 13:09:51;;;;;;;19.88;9.63;;;;;;;;;;5034780;28;20029;-74
2021/06/15 13:12:23;;;;;;;29.10;9.63;;;;;;;;;;5034150;28;20040;-75
2021/06/15 13:14:56;;;;;;;25.08;10.52;;;;;;;;;;5034578;28;20130;-76
2021/06/15 13:17:27;;;;;;;33.20;8.93;;;;;;;;;;5025525;28;20040;-71
2021/06/15 13:20:07;;;;;;;14.50;8.65;;;;;;;;;;5019866;28;20810;-71
2021/06/15 13:22:40;;;;;;;18.17;8.80;;;;;;;;;;5018506;28;20064;-72
2021/06/15 13:25:06;;;;;;;21.55;8.35;;;;;;;;;;5035250;28;20503;-70
2021/06/15 13:27:35;;;;;;;22.15;8.93;;;;;;;;;;5030629;28;20140;-71
2021/06/15 13:30:19;;;;;;;29.60;9.02;;;;;;;;;;5034806;28;20098;-73
2021/06/15 13:32:45;;;;;;;23.30;9.30;;;;;;;;;;5033711;28;20025;-72
2021/06/15 13:37:41;;;;;;;16.50;8.97;;;;;;;;;;5042010;28;20107;-70
2021/06/15 13:42:33;;;;;;;23.88;9.35;;;;;;;;;;5036234;28;20718;-71
2021/06/15 13:47:45;;;;;;;19.10;8.95;;;;;;;;;;4956992;28;20094;-75
2021/06/15 13:50:12;;;;;;;23.50;9.40;;;;;;;;;;4960268;28;20141;-75
2021/06/15 13:52:37;;;;;;;26.38;9.15;;;;;;;;;;4974467;28;20085;-74
2021/06/15 13:55:07;;;;;;;26.85;9.52;;;;;;;;;;4973909;28;20050;-71
2021/06/15 13:57:33;;;;;;;25.42;9.05;;;;;;;;;;4947038;28;20034;-70
2021/06/15 13:59:59;;;;;;;22.92;9.52;;;;;;;;;;4956867;28;20639;-70
2021/06/15 14:02:24;;;;;;;27.88;9.10;;;;;;;;;;4970792;28;20046;-77
2021/06/15 14:04:50;;;;;;;21.90;9.30;;;;;;;;;;4975485;28;20039;-70
2021/06/15 14:07:16;;;;;;;29.30;10.10;;;;;;;;;;4957769;28;20535;-75
2021/06/15 14:09:42;;;;;;;39.22;11.27;;;;;;;;;;4963503;28;20498;-71
2021/06/15 14:12:08;;;;;;;30.73;11.70;;;;;;;;;;4953954;28;20245;-67
2021/06/15 14:14:34;;;;;;;38.08;13.00;;;;;;;;;;4961588;28;20572;-69
2021/06/15 14:17:00;;;;;;;46.58;13.70;;;;;;;;;;4945672;28;20046;-70
2021/06/15 14:19:26;;;;;;;42.33;14.55;;;;;;;;;;4964109;28;20057;-68
2021/06/15 14:21:56;;;;;;;40.58;16.98;;;;;;;;;;4987224;28;20042;-66
2021/06/15 14:24:22;;;;;;;39.35;15.38;;;;;;;;;;4996761;28;20047;-70
2021/06/15 14:26:48;;;;;;;32.75;12.68;;;;;;;;;;5009574;28;20036;-69
2021/06/15 14:29:13;;;;;;;34.28;13.98;;;;;;;;;;5018922;28;20036;-71
2021/06/15 14:31:39;;;;;;;30.95;14.75;;;;;;;;;;5044567;28;20041;-71
2021/06/15 14:34:08;;;;;;;47.88;17.33;;;;;;;;;;5022636;28;20044;-73
2021/06/15 14:36:36;;;;;;;45.50;17.48;;;;;;;;;;5016948;28;20033;-70
2021/06/15 14:39:02;;;;;;;35.83;16.92;;;;;;;;;;5029997;28;20905;-71
2021/06/15 14:43:54;;;;;;;30.08;15.13;;;;;;;;;;5018750;28;20203;-71
2021/06/15 14:46:22;;;;;;;37.22;14.77;;;;;;;;;;4999637;28;20042;-71
2021/06/15 14:48:49;;;;;;;34.47;15.60;;;;;;;;;;5032309;28;20412;-70
2021/06/15 14:51:15;;;;;;;32.42;15.00;;;;;;;;;;5032929;28;20041;-72